createdAt,value
2018-11-14T00:01:08.622Z,8.34
2018-11-14T00:02:08.627Z,8.37
2018-11-14T00:03:08.631Z,8.33
2018-11-14T00:04:08.411Z,8.41
2018-11-14T00:05:08.692Z,8.43
2018-11-14T00:06:08.677Z,8.44
2018-11-14T00:07:08.464Z,8.45
2018-11-14T00:08:08.724Z,8.47
2018-11-14T00:10:08.914Z,8.43
2018-11-14T00:11:08.535Z,8.44
2018-11-14T00:12:08.818Z,8.55
2018-11-14T00:13:08.559Z,8.56
2018-11-14T00:14:08.555Z,8.55
2018-11-14T00:15:08.833Z,8.61
2018-11-14T00:16:23.525Z,8.58
2018-11-14T00:17:08.612Z,8.7
2018-11-14T00:19:08.914Z,8.7
2018-11-14T00:20:08.690Z,8.71
2018-11-14T00:21:23.335Z,8.7
2018-11-14T00:22:08.952Z,8.68
2018-11-14T00:23:08.741Z,8.77
2018-11-14T00:24:08.744Z,8.73
2018-11-14T00:25:08.776Z,8.8
2018-11-14T00:26:09.024Z,8.79
2018-11-14T00:27:08.800Z,8.8
2018-11-14T00:28:08.815Z,8.81
2018-11-14T00:29:08.823Z,8.83
2018-11-14T00:30:08.852Z,8.87
2018-11-14T00:31:09.107Z,8.87
2018-11-14T00:32:09.124Z,8.94
2018-11-14T00:33:09.330Z,8.89
2018-11-14T00:34:08.927Z,8.91
2018-11-14T00:35:08.943Z,8.89
2018-11-14T00:36:09.190Z,8.81
2018-11-14T00:37:23.625Z,8.92
2018-11-14T00:38:08.712Z,8.77
2018-11-14T00:39:09.252Z,8.81
2018-11-14T00:41:09.284Z,8.89
2018-11-14T00:42:09.335Z,8.94
2018-11-14T00:43:08.798Z,8.91
2018-11-14T00:44:09.366Z,8.87
2018-11-14T00:45:09.357Z,8.89
2018-11-14T00:46:09.370Z,8.89
2018-11-14T00:47:09.396Z,9.02
2018-11-14T00:48:24.077Z,8.89
2018-11-14T00:49:09.451Z,8.89
2018-11-14T00:50:09.440Z,8.87
2018-11-14T00:51:09.226Z,8.91
2018-11-14T00:52:09.474Z,8.8
2018-11-14T00:53:24.170Z,8.83
2018-11-14T00:54:09.528Z,8.79
2018-11-14T00:55:09.301Z,8.74
2018-11-14T00:57:09.582Z,8.81
2018-11-14T00:58:09.594Z,8.76
2018-11-14T00:59:09.361Z,8.8
2018-11-14T01:00:24.016Z,8.73
2018-11-14T01:01:09.661Z,8.81
2018-11-14T01:02:24.833Z,8.81
2018-11-14T01:03:09.770Z,8.77
2018-11-14T01:04:24.355Z,8.79
2018-11-14T01:05:09.448Z,8.83
2018-11-14T01:06:09.749Z,8.81
2018-11-14T01:07:09.493Z,8.79
2018-11-14T01:08:09.794Z,8.79
2018-11-14T01:09:24.427Z,8.79
2018-11-14T01:10:09.525Z,8.83
2018-11-14T01:11:09.832Z,8.81
2018-11-14T01:12:10.143Z,8.73
2018-11-14T01:13:10.147Z,8.65
2018-11-14T01:14:09.860Z,8.79
2018-11-14T01:15:09.642Z,8.62
2018-11-14T01:16:09.888Z,8.76
2018-11-14T01:17:24.569Z,8.59
2018-11-14T01:18:10.154Z,8.73
2018-11-14T01:19:09.972Z,8.74
2018-11-14T01:20:09.730Z,8.8
2018-11-14T01:21:09.981Z,8.76
2018-11-14T01:22:09.751Z,8.7
2018-11-14T01:23:10.050Z,8.66
2018-11-14T01:24:24.433Z,8.71
2018-11-14T01:25:10.077Z,8.62
2018-11-14T01:26:10.217Z,8.61
2018-11-14T01:27:09.976Z,8.56
2018-11-14T01:28:10.101Z,8.65
2018-11-14T01:29:09.883Z,8.56
2018-11-14T01:30:09.897Z,8.58
2018-11-14T01:31:09.905Z,8.55
2018-11-14T01:32:10.177Z,8.47
2018-11-14T01:33:10.188Z,8.44
2018-11-14T01:34:25.056Z,8.44
2018-11-14T01:35:10.230Z,8.44
2018-11-14T01:36:10.006Z,8.45
2018-11-14T01:37:10.290Z,8.4
2018-11-14T01:38:10.339Z,8.4
2018-11-14T01:39:09.797Z,8.4
2018-11-14T01:41:10.196Z,8.41
2018-11-14T01:42:10.347Z,8.43
2018-11-14T01:43:10.358Z,8.38
2018-11-14T01:44:10.415Z,8.44
2018-11-14T01:45:10.396Z,8.37
2018-11-14T01:46:10.176Z,8.33
2018-11-14T01:47:10.447Z,8.43
2018-11-14T01:48:10.212Z,8.36
2018-11-14T01:49:10.199Z,8.37
2018-11-14T01:51:10.499Z,8.36
2018-11-14T01:52:25.184Z,8.26
2018-11-14T01:53:10.529Z,8.2
2018-11-14T01:54:10.590Z,8.2
2018-11-14T01:55:10.570Z,8.28
2018-11-14T01:56:25.269Z,8.15
2018-11-14T01:57:25.013Z,8.25
2018-11-14T01:58:10.616Z,8.26
2018-11-14T01:59:10.658Z,8.22
2018-11-14T02:00:10.649Z,8.22
2018-11-14T02:01:10.733Z,8.19
2018-11-14T02:02:10.684Z,8.16
2018-11-14T02:03:10.737Z,8.12
2018-11-14T02:04:10.749Z,8.04
2018-11-14T02:05:25.397Z,8.19
2018-11-14T02:06:10.766Z,8.23
2018-11-14T02:07:10.768Z,8.19
2018-11-14T02:08:10.819Z,8.25
2018-11-14T02:09:10.549Z,8.26
2018-11-14T02:10:10.857Z,8.26
2018-11-14T02:11:10.330Z,8.3
2018-11-14T02:12:25.532Z,8.2
2018-11-14T02:15:10.674Z,8.26
2018-11-14T02:16:11.026Z,8.19
2018-11-14T02:18:10.969Z,8.34
2018-11-14T02:19:10.988Z,8.36
2018-11-14T02:20:10.760Z,8.29
2018-11-14T02:21:11.038Z,8.26
2018-11-14T02:22:11.046Z,8.33
2018-11-14T02:23:11.070Z,8.25
2018-11-14T02:24:11.062Z,8.36
2018-11-14T02:25:11.108Z,8.25
2018-11-14T02:26:11.092Z,8.25
2018-11-14T02:27:11.139Z,8.26
2018-11-14T02:28:25.797Z,8.28
2018-11-14T02:29:11.160Z,8.18
2018-11-14T02:30:11.167Z,8.12
2018-11-14T02:31:11.186Z,8.08
2018-11-14T02:32:11.222Z,8.12
2018-11-14T02:33:11.214Z,8.19
2018-11-14T02:34:11.264Z,8.23
2018-11-14T02:35:11.247Z,8.25
2018-11-14T02:36:11.032Z,8.22
2018-11-14T02:37:11.030Z,8.15
2018-11-14T02:38:11.053Z,8.2
2018-11-14T02:39:11.315Z,8.2
2018-11-14T02:40:11.370Z,8.25
2018-11-14T02:41:11.378Z,8.29
2018-11-14T02:42:11.375Z,8.29
2018-11-14T02:43:11.392Z,8.23
2018-11-14T02:44:25.817Z,8.12
2018-11-14T02:45:11.504Z,8.08
2018-11-14T02:46:11.468Z,8.08
2018-11-14T02:47:11.455Z,8.15
2018-11-14T02:48:11.491Z,8.12
2018-11-14T02:49:11.488Z,8.07
2018-11-14T02:50:11.268Z,8.12
2018-11-14T02:51:11.551Z,8.08
2018-11-14T02:52:26.199Z,8.11
2018-11-14T02:53:11.566Z,8.16
2018-11-14T02:54:11.647Z,8.16
2018-11-14T02:55:26.263Z,8.15
2018-11-14T02:56:11.347Z,8.1
2018-11-14T02:57:11.390Z,8.02
2018-11-14T02:58:11.653Z,8
2018-11-14T02:59:26.335Z,8.01
2018-11-14T03:00:11.673Z,8.01
2018-11-14T03:01:11.434Z,8.1
2018-11-14T03:02:11.741Z,8.02
2018-11-14T03:03:11.483Z,7.98
2018-11-14T03:04:11.779Z,8.02
2018-11-14T03:05:11.764Z,7.95
2018-11-14T03:06:11.799Z,8
2018-11-14T03:07:11.531Z,7.97
2018-11-14T03:08:11.838Z,8.01
2018-11-14T03:09:26.224Z,7.98
2018-11-14T03:10:11.881Z,7.98
2018-11-14T03:11:11.921Z,7.83
2018-11-14T03:12:11.736Z,8.01
2018-11-14T03:13:11.665Z,7.95
2018-11-14T03:14:11.940Z,7.93
2018-11-14T03:15:11.924Z,8
2018-11-14T03:16:26.628Z,8.07
2018-11-14T03:17:11.956Z,8.08
2018-11-14T03:18:11.980Z,7.98
2018-11-14T03:19:12.008Z,8.01
2018-11-14T03:20:12.029Z,8.07
2018-11-14T03:22:26.751Z,8
2018-11-14T03:23:12.091Z,7.9
2018-11-14T03:24:12.079Z,8.01
2018-11-14T03:25:26.751Z,7.97
2018-11-14T03:26:12.139Z,7.93
2018-11-14T03:27:12.146Z,8
2018-11-14T03:28:12.175Z,8.02
2018-11-14T03:30:12.218Z,7.85
2018-11-14T03:31:26.870Z,7.93
2018-11-14T03:33:11.993Z,7.85
2018-11-14T03:34:12.005Z,7.8
2018-11-14T03:35:12.030Z,7.79
2018-11-14T03:36:12.281Z,7.8
2018-11-14T03:37:12.322Z,7.95
2018-11-14T03:38:12.337Z,7.87
2018-11-14T03:39:26.988Z,7.95
2018-11-14T03:40:12.386Z,7.86
2018-11-14T03:41:27.024Z,7.87
2018-11-14T03:42:12.396Z,7.87
2018-11-14T03:43:12.427Z,7.77
2018-11-14T03:44:12.183Z,7.83
2018-11-14T03:45:12.490Z,7.89
2018-11-14T03:46:11.934Z,7.82
2018-11-14T03:47:27.144Z,7.87
2018-11-14T03:48:12.488Z,7.92
2018-11-14T03:49:12.567Z,7.87
2018-11-14T03:50:12.264Z,7.86
2018-11-14T03:51:12.308Z,7.89
2018-11-14T03:52:12.574Z,7.92
2018-11-14T03:53:12.320Z,7.79
2018-11-14T03:54:26.985Z,7.89
2018-11-14T03:55:12.593Z,7.87
2018-11-14T03:56:12.698Z,7.82
2018-11-14T03:57:12.375Z,7.79
2018-11-14T03:58:12.887Z,7.77
2018-11-14T03:59:12.410Z,7.72
2018-11-14T04:00:12.717Z,7.68
2018-11-14T04:02:12.468Z,7.58
2018-11-14T04:03:27.410Z,7.63
2018-11-14T04:04:12.756Z,7.72
2018-11-14T04:05:12.521Z,7.71
2018-11-14T04:06:12.806Z,7.63
2018-11-14T04:08:12.575Z,7.83
2018-11-14T04:09:12.989Z,7.67
2018-11-14T04:10:12.849Z,7.72
2018-11-14T04:11:12.905Z,7.64
2018-11-14T04:12:12.888Z,7.57
2018-11-14T04:13:12.675Z,7.6
2018-11-14T04:14:12.921Z,7.55
2018-11-14T04:15:27.609Z,7.58
2018-11-14T04:16:12.984Z,7.63
2018-11-14T04:17:12.724Z,7.61
2018-11-14T04:18:12.983Z,7.57
2018-11-14T04:19:27.671Z,7.61
2018-11-14T04:20:13.047Z,7.72
2018-11-14T04:21:13.036Z,7.58
2018-11-14T04:22:13.089Z,7.57
2018-11-14T04:23:13.083Z,7.57
2018-11-14T04:24:12.856Z,7.55
2018-11-14T04:25:13.107Z,7.64
2018-11-14T04:26:13.135Z,7.5
2018-11-14T04:27:13.142Z,7.5
2018-11-14T04:28:12.926Z,7.5
2018-11-14T04:29:13.196Z,7.48
2018-11-14T04:30:13.230Z,7.53
2018-11-14T04:31:13.200Z,7.48
2018-11-14T04:32:13.275Z,7.42
2018-11-14T04:33:13.244Z,7.35
2018-11-14T04:34:27.925Z,7.43
2018-11-14T04:35:13.277Z,7.52
2018-11-14T04:36:13.319Z,7.43
2018-11-14T04:37:13.302Z,7.48
2018-11-14T04:38:13.090Z,7.45
2018-11-14T04:39:13.099Z,7.34
2018-11-14T04:40:13.115Z,7.3
2018-11-14T04:41:28.030Z,7.27
2018-11-14T04:42:12.870Z,7.39
2018-11-14T04:43:13.435Z,7.25
2018-11-14T04:44:28.077Z,7.21
2018-11-14T04:45:13.483Z,7.37
2018-11-14T04:46:13.488Z,7.34
2018-11-14T04:47:13.488Z,7.42
2018-11-14T04:48:14.026Z,7.24
2018-11-14T04:49:13.246Z,7.24
2018-11-14T04:50:13.293Z,7.28
2018-11-14T04:51:13.553Z,7.17
2018-11-14T04:52:13.590Z,7.15
2018-11-14T04:54:13.619Z,7.15
2018-11-14T04:55:13.624Z,7.15
2018-11-14T04:56:13.639Z,7.03
2018-11-14T04:57:13.640Z,7.02
2018-11-14T04:58:13.685Z,6.98
2018-11-14T04:59:13.673Z,6.99
2018-11-14T05:00:13.700Z,7.06
2018-11-14T05:01:28.385Z,7.03
2018-11-14T05:02:13.858Z,6.98
2018-11-14T05:03:13.734Z,6.98
2018-11-14T05:04:13.781Z,6.98
2018-11-14T05:05:13.251Z,6.95
2018-11-14T05:06:28.462Z,6.95
2018-11-14T05:07:13.806Z,6.95
2018-11-14T05:08:13.848Z,6.92
2018-11-14T05:09:13.603Z,6.92
2018-11-14T05:10:13.873Z,6.92
2018-11-14T05:12:13.904Z,7.06
2018-11-14T05:13:14.168Z,7.13
2018-11-14T05:14:13.954Z,6.97
2018-11-14T05:15:13.942Z,6.98
2018-11-14T05:16:13.953Z,6.91
2018-11-14T05:17:28.644Z,6.92
2018-11-14T05:18:13.987Z,6.88
2018-11-14T05:19:14.035Z,6.87
2018-11-14T05:20:14.028Z,6.8
2018-11-14T05:21:13.806Z,6.84
2018-11-14T05:22:28.705Z,6.8
2018-11-14T05:23:13.807Z,6.79
2018-11-14T05:24:13.853Z,6.74
2018-11-14T05:25:13.859Z,6.73
2018-11-14T05:26:13.860Z,6.73
2018-11-14T05:27:14.165Z,6.67
2018-11-14T05:28:14.149Z,6.67
2018-11-14T05:29:14.204Z,6.64
2018-11-14T05:30:14.197Z,6.59
2018-11-14T05:32:13.960Z,6.64
2018-11-14T05:33:14.230Z,6.69
2018-11-14T05:34:14.277Z,6.61
2018-11-14T05:35:14.289Z,6.56
2018-11-14T05:36:14.319Z,6.64
2018-11-14T05:37:14.351Z,6.54
2018-11-14T05:38:28.990Z,6.52
2018-11-14T05:39:14.331Z,6.55
2018-11-14T05:40:14.813Z,6.52
2018-11-14T05:41:14.135Z,6.51
2018-11-14T05:42:14.400Z,6.43
2018-11-14T05:43:14.425Z,6.44
2018-11-14T05:44:14.464Z,6.49
2018-11-14T05:45:14.277Z,6.34
2018-11-14T05:46:14.442Z,6.41
2018-11-14T05:47:14.480Z,6.43
2018-11-14T05:48:28.878Z,6.38
2018-11-14T05:49:14.528Z,6.38
2018-11-14T05:50:14.540Z,6.48
2018-11-14T05:51:14.522Z,6.4
2018-11-14T05:52:14.568Z,6.49
2018-11-14T05:53:14.316Z,6.38
2018-11-14T05:54:28.977Z,6.44
2018-11-14T05:55:14.622Z,6.36
2018-11-14T05:56:14.350Z,6.43
2018-11-14T05:58:14.676Z,6.46
2018-11-14T05:59:14.660Z,6.43
2018-11-14T06:00:14.707Z,6.43
2018-11-14T06:01:14.708Z,6.4
2018-11-14T06:02:14.736Z,6.38
2018-11-14T06:03:29.381Z,6.36
2018-11-14T06:04:14.736Z,6.36
2018-11-14T06:05:14.787Z,6.25
2018-11-14T06:06:14.774Z,6.31
2018-11-14T06:07:15.273Z,6.31
2018-11-14T06:08:14.554Z,6.33
2018-11-14T06:09:29.493Z,6.3
2018-11-14T06:10:14.854Z,6.28
2018-11-14T06:11:14.853Z,6.27
2018-11-14T06:12:14.643Z,6.3
2018-11-14T06:14:14.983Z,6.21
2018-11-14T06:15:14.872Z,6.31
2018-11-14T06:16:14.953Z,6.34
2018-11-14T06:17:14.700Z,6.44
2018-11-14T06:18:14.968Z,6.38
2018-11-14T06:19:14.755Z,6.37
2018-11-14T06:20:15.004Z,6.38
2018-11-14T06:21:15.029Z,6.46
2018-11-14T06:22:15.071Z,6.44
2018-11-14T06:23:15.047Z,6.48
2018-11-14T06:24:15.098Z,6.51
2018-11-14T06:25:15.099Z,6.59
2018-11-14T06:26:15.215Z,6.51
2018-11-14T06:27:15.111Z,6.55
2018-11-14T06:28:29.827Z,6.54
2018-11-14T06:29:15.180Z,6.48
2018-11-14T06:30:29.822Z,6.41
2018-11-14T06:32:15.221Z,6.58
2018-11-14T06:33:15.232Z,6.62
2018-11-14T06:34:15.226Z,6.58
2018-11-14T06:35:15.242Z,6.61
2018-11-14T06:36:15.286Z,6.59
2018-11-14T06:37:15.279Z,6.66
2018-11-14T06:38:15.334Z,6.55
2018-11-14T06:39:15.354Z,6.76
2018-11-14T06:41:30.090Z,6.69
2018-11-14T06:42:15.101Z,6.69
2018-11-14T06:43:15.404Z,6.69
2018-11-14T06:44:15.394Z,6.67
2018-11-14T06:45:15.434Z,6.81
2018-11-14T06:46:15.425Z,6.8
2018-11-14T06:47:15.474Z,6.92
2018-11-14T06:48:15.455Z,6.97
2018-11-14T06:49:15.238Z,6.89
2018-11-14T06:50:15.420Z,6.92
2018-11-14T06:51:15.549Z,6.98
2018-11-14T06:52:15.258Z,6.97
2018-11-14T06:53:15.555Z,6.95
2018-11-14T06:54:15.553Z,6.94
2018-11-14T06:55:15.607Z,6.89
2018-11-14T06:57:30.389Z,6.94
2018-11-14T06:59:16.199Z,6.97
2018-11-14T07:00:15.410Z,6.99
2018-11-14T07:01:15.664Z,7.07
2018-11-14T07:02:15.713Z,7.13
2018-11-14T07:04:15.743Z,7.1
2018-11-14T07:05:16.439Z,7.12
2018-11-14T07:06:15.655Z,7.21
2018-11-14T07:07:15.508Z,7.12
2018-11-14T07:08:30.459Z,7.16
2018-11-14T07:09:15.543Z,7.2
2018-11-14T07:10:15.561Z,7.28
2018-11-14T07:11:15.748Z,7.35
2018-11-14T07:12:15.619Z,7.39
2018-11-14T07:13:30.542Z,7.37
2018-11-14T07:14:15.892Z,7.4
2018-11-14T07:15:15.928Z,7.34
2018-11-14T07:16:15.672Z,7.43
2018-11-14T07:17:16.036Z,7.46
2018-11-14T07:18:15.723Z,7.48
2018-11-14T07:19:15.968Z,7.57
2018-11-14T07:20:15.747Z,7.61
2018-11-14T07:21:15.998Z,7.63
2018-11-14T07:22:16.050Z,7.58
2018-11-14T07:23:16.072Z,7.64
2018-11-14T07:24:15.816Z,7.64
2018-11-14T07:25:16.087Z,7.71
2018-11-14T07:26:16.084Z,7.67
2018-11-14T07:27:16.130Z,7.79
2018-11-14T07:28:16.119Z,7.77
2018-11-14T07:29:30.813Z,7.77
2018-11-14T07:30:16.240Z,7.87
2018-11-14T07:32:16.190Z,7.95
2018-11-14T07:33:16.205Z,8
2018-11-14T07:34:16.227Z,7.95
2018-11-14T07:35:16.256Z,8.02
2018-11-14T07:36:16.288Z,8.04
2018-11-14T07:37:16.305Z,8
2018-11-14T07:38:16.042Z,8.04
2018-11-14T07:39:16.070Z,8.05
2018-11-14T07:40:16.328Z,8.08
2018-11-14T07:41:16.112Z,8.18
2018-11-14T07:42:16.366Z,8.19
2018-11-14T07:43:16.391Z,8.23
2018-11-14T07:44:31.083Z,8.23
2018-11-14T07:45:16.418Z,8.33
2018-11-14T07:46:16.465Z,8.36
2018-11-14T07:47:16.581Z,8.34
2018-11-14T07:48:16.472Z,8.38
2018-11-14T07:49:16.972Z,8.43
2018-11-14T07:50:16.859Z,8.33
2018-11-14T07:51:16.552Z,8.44
2018-11-14T07:52:16.548Z,8.36
2018-11-14T07:53:16.625Z,8.47
2018-11-14T07:54:16.574Z,8.43
2018-11-14T07:55:16.362Z,8.43
2018-11-14T07:56:16.608Z,8.47
2018-11-14T07:57:16.643Z,8.52
2018-11-14T07:58:16.648Z,8.61
2018-11-14T07:59:16.690Z,8.56
2018-11-14T08:00:16.713Z,8.61
2018-11-14T08:02:16.694Z,8.63
2018-11-14T08:03:16.732Z,8.68
2018-11-14T08:04:16.780Z,8.74
2018-11-14T08:05:16.784Z,8.81
2018-11-14T08:06:16.837Z,8.92
2018-11-14T08:07:16.836Z,8.87
2018-11-14T08:08:17.100Z,8.79
2018-11-14T08:09:16.842Z,8.79
2018-11-14T08:10:16.907Z,8.79
2018-11-14T08:11:16.899Z,8.81
2018-11-14T08:12:16.906Z,8.92
2018-11-14T08:13:16.912Z,8.95
2018-11-14T08:14:16.965Z,8.94
2018-11-14T08:15:16.692Z,9.04
2018-11-14T08:16:31.383Z,9.14
2018-11-14T08:17:17.010Z,9.23
2018-11-14T08:18:16.762Z,9.35
2018-11-14T08:19:17.173Z,9.28
2018-11-14T08:20:17.035Z,9.31
2018-11-14T08:21:17.092Z,9.38
2018-11-14T08:22:17.092Z,9.29
2018-11-14T08:23:17.132Z,9.46
2018-11-14T08:24:31.778Z,9.33
2018-11-14T08:25:17.384Z,9.53
2018-11-14T08:27:16.925Z,9.65
2018-11-14T08:28:31.861Z,9.64
2018-11-14T08:29:17.210Z,9.74
2018-11-14T08:30:16.991Z,9.74
2018-11-14T08:31:17.243Z,9.74
2018-11-14T08:32:31.677Z,9.66
2018-11-14T08:33:17.018Z,9.75
2018-11-14T08:35:17.081Z,9.83
2018-11-14T08:36:17.365Z,9.75
2018-11-14T08:37:17.108Z,9.75
2018-11-14T08:38:17.405Z,9.79
2018-11-14T08:39:17.325Z,9.81
2018-11-14T08:40:17.438Z,9.87
2018-11-14T08:41:32.105Z,9.9
2018-11-14T08:42:17.447Z,9.91
2018-11-14T08:43:32.136Z,9.97
2018-11-14T08:44:17.227Z,9.97
2018-11-14T08:45:17.530Z,10.01
2018-11-14T08:46:17.516Z,10.01
2018-11-14T08:47:17.572Z,9.93
2018-11-14T08:48:32.234Z,10.02
2018-11-14T08:49:17.588Z,10.05
2018-11-14T08:50:17.894Z,10.15
2018-11-14T08:51:17.634Z,10.2
2018-11-14T08:52:17.634Z,10.26
2018-11-14T08:53:17.689Z,10.25
2018-11-14T08:54:17.411Z,10.38
2018-11-14T08:55:17.450Z,10.41
2018-11-14T08:56:17.708Z,10.47
2018-11-14T08:57:17.232Z,10.47
2018-11-14T08:58:32.427Z,10.6
2018-11-14T08:59:17.767Z,10.66
2018-11-14T09:01:17.805Z,10.59
2018-11-14T09:03:17.599Z,10.63
2018-11-14T09:05:17.897Z,10.81
2018-11-14T09:06:17.830Z,10.89
2018-11-14T09:07:17.915Z,10.85
2018-11-14T09:08:17.970Z,10.91
2018-11-14T09:09:17.969Z,10.91
2018-11-14T09:10:18.003Z,10.99
2018-11-14T09:11:18.517Z,11.11
2018-11-14T09:12:18.159Z,11
2018-11-14T09:13:18.290Z,11.06
2018-11-14T09:14:18.129Z,11.17
2018-11-14T09:15:18.311Z,11.21
2018-11-14T09:16:18.097Z,11.24
2018-11-14T09:17:17.877Z,11.27
2018-11-14T09:20:18.200Z,11.32
2018-11-14T09:21:17.929Z,11.35
2018-11-14T09:22:18.244Z,11.37
2018-11-14T09:23:18.252Z,11.27
2018-11-14T09:24:18.258Z,11.19
2018-11-14T09:25:18.302Z,11.14
2018-11-14T09:26:32.943Z,11.21
2018-11-14T09:27:18.062Z,11.11
2018-11-14T09:28:18.324Z,11.11
2018-11-14T09:30:18.132Z,11.27
2018-11-14T09:31:18.384Z,11.25
2018-11-14T09:32:18.158Z,11.27
2018-11-14T09:33:18.925Z,11.28
2018-11-14T09:34:18.492Z,11.4
2018-11-14T09:35:18.489Z,11.39
2018-11-14T09:36:18.477Z,11.43
2018-11-14T09:37:18.354Z,11.47
2018-11-14T09:38:18.585Z,11.51
2018-11-14T09:39:33.221Z,11.35
2018-11-14T09:40:18.319Z,11.42
2018-11-14T09:41:18.904Z,11.44
2018-11-14T09:42:18.605Z,11.4
2018-11-14T09:43:18.349Z,11.46
2018-11-14T09:44:18.396Z,11.4
2018-11-14T09:45:33.053Z,11.46
2018-11-14T09:46:18.702Z,11.44
2018-11-14T09:47:18.457Z,11.35
2018-11-14T09:48:18.721Z,11.35
2018-11-14T09:49:19.184Z,11.4
2018-11-14T09:50:18.749Z,11.35
2018-11-14T09:51:33.441Z,11.32
2018-11-14T09:52:18.787Z,11.35
2018-11-14T09:53:19.062Z,11.32
2018-11-14T09:54:18.821Z,11.43
2018-11-14T09:55:18.878Z,11.44
2018-11-14T09:56:18.927Z,11.37
2018-11-14T09:57:18.908Z,11.24
2018-11-14T09:58:18.914Z,11.28
2018-11-14T09:59:18.690Z,11.37
2018-11-14T10:00:18.945Z,11.39
2018-11-14T10:01:18.710Z,11.36
2018-11-14T10:02:19.018Z,11.36
2018-11-14T10:03:33.719Z,11.42
2018-11-14T10:04:19.016Z,11.4
2018-11-14T10:05:18.804Z,11.61
2018-11-14T10:06:19.078Z,11.47
2018-11-14T10:07:33.736Z,11.6
2018-11-14T10:08:18.845Z,11.62
2018-11-14T10:09:19.151Z,11.72
2018-11-14T10:10:19.166Z,11.75
2018-11-14T10:11:19.157Z,11.7
2018-11-14T10:12:19.200Z,11.72
2018-11-14T10:14:19.237Z,11.76
2018-11-14T10:15:33.990Z,11.78
2018-11-14T10:16:33.931Z,11.75
2018-11-14T10:17:19.036Z,11.7
2018-11-14T10:18:19.329Z,11.73
2018-11-14T10:19:19.347Z,11.72
2018-11-14T10:20:19.335Z,11.75
2018-11-14T10:21:19.677Z,11.78
2018-11-14T10:22:19.367Z,11.75
2018-11-14T10:23:34.066Z,11.79
2018-11-14T10:24:19.447Z,11.86
2018-11-14T10:26:19.198Z,11.82
2018-11-14T10:27:19.499Z,11.82
2018-11-14T10:28:19.250Z,11.73
2018-11-14T10:30:19.325Z,11.73
2018-11-14T10:31:19.568Z,11.78
2018-11-14T10:32:34.224Z,11.78
2018-11-14T10:33:34.264Z,11.83
2018-11-14T10:34:34.282Z,11.78
2018-11-14T10:36:19.735Z,11.69
2018-11-14T10:37:19.405Z,11.69
2018-11-14T10:38:19.686Z,11.79
2018-11-14T10:39:34.377Z,11.79
2018-11-14T10:40:19.477Z,11.82
2018-11-14T10:42:19.761Z,11.76
2018-11-14T10:43:19.817Z,11.82
2018-11-14T10:44:19.804Z,11.8
2018-11-14T10:45:19.826Z,11.8
2018-11-14T10:46:19.856Z,11.9
2018-11-14T10:47:19.650Z,11.9
2018-11-14T10:48:19.648Z,11.9
2018-11-14T10:49:19.645Z,11.96
2018-11-14T10:50:19.672Z,11.96
2018-11-14T10:51:19.939Z,12.04
2018-11-14T10:52:19.995Z,12.16
2018-11-14T10:53:19.990Z,12.13
2018-11-14T10:54:34.672Z,12.05
2018-11-14T10:55:20.047Z,11.99
2018-11-14T10:56:34.704Z,12.2
2018-11-14T10:57:20.087Z,12.14
2018-11-14T10:58:20.242Z,12.16
2018-11-14T11:00:19.627Z,12.19
2018-11-14T11:01:19.881Z,12.13
2018-11-14T11:02:34.818Z,12.01
2018-11-14T11:03:20.203Z,12.02
2018-11-14T11:04:34.858Z,12.04
2018-11-14T11:05:19.988Z,12.07
2018-11-14T11:06:20.251Z,12.12
2018-11-14T11:07:20.286Z,11.96
2018-11-14T11:08:20.666Z,11.96
2018-11-14T11:09:20.293Z,11.9
2018-11-14T11:10:20.391Z,11.98
2018-11-14T11:11:20.102Z,11.96
2018-11-14T11:12:20.385Z,11.96
2018-11-14T11:13:20.478Z,11.94
2018-11-14T11:14:20.434Z,11.8
2018-11-14T11:15:20.168Z,11.86
2018-11-14T11:16:20.447Z,11.94
2018-11-14T11:17:20.471Z,11.76
2018-11-14T11:18:20.509Z,11.76
2018-11-14T11:19:20.522Z,11.91
2018-11-14T11:20:20.517Z,12.01
2018-11-14T11:21:20.288Z,12.07
2018-11-14T11:22:20.568Z,12.02
2018-11-14T11:23:35.462Z,12.04
2018-11-14T11:24:20.352Z,12.12
2018-11-14T11:26:35.301Z,12.28
2018-11-14T11:27:35.066Z,12.31
2018-11-14T11:28:20.682Z,12.41
2018-11-14T11:29:20.710Z,12.46
2018-11-14T11:31:20.729Z,12.6
2018-11-14T11:32:20.807Z,12.52
2018-11-14T11:33:20.770Z,12.56
2018-11-14T11:34:20.814Z,12.67
2018-11-14T11:35:20.810Z,12.72
2018-11-14T11:36:20.859Z,12.67
2018-11-14T11:37:20.622Z,12.49
2018-11-14T11:38:20.902Z,12.68
2018-11-14T11:39:20.889Z,12.56
2018-11-14T11:40:20.911Z,12.67
2018-11-14T11:41:20.971Z,12.68
2018-11-14T11:42:35.351Z,12.56
2018-11-14T11:43:21.000Z,12.52
2018-11-14T11:45:20.753Z,12.54
2018-11-14T11:46:20.520Z,12.57
2018-11-14T11:47:21.048Z,12.5
2018-11-14T11:48:21.105Z,12.54
2018-11-14T11:49:21.103Z,12.46
2018-11-14T11:50:21.124Z,12.56
2018-11-14T11:51:20.633Z,12.56
2018-11-14T11:52:21.147Z,12.65
2018-11-14T11:53:20.676Z,12.52
2018-11-14T11:54:21.205Z,12.54
2018-11-14T11:55:20.965Z,12.56
2018-11-14T11:56:21.228Z,12.49
2018-11-14T11:57:21.018Z,12.59
2018-11-14T11:58:35.945Z,12.42
2018-11-14T11:59:21.388Z,12.41
2018-11-14T12:00:21.983Z,12.35
2018-11-14T12:01:21.328Z,12.39
2018-11-14T12:02:21.852Z,12.39
2018-11-14T12:03:21.373Z,12.45
2018-11-14T12:04:21.135Z,12.46
2018-11-14T12:05:21.432Z,12.49
2018-11-14T12:06:22.010Z,12.62
2018-11-14T12:07:21.580Z,12.57
2018-11-14T12:08:21.497Z,12.67
2018-11-14T12:09:36.163Z,12.78
2018-11-14T12:10:21.515Z,12.82
2018-11-14T12:11:21.570Z,12.83
2018-11-14T12:12:21.684Z,12.82
2018-11-14T12:13:36.331Z,12.92
2018-11-14T12:14:36.267Z,12.74
2018-11-14T12:15:21.632Z,12.68
2018-11-14T12:16:21.634Z,12.71
2018-11-14T12:18:21.473Z,12.67
2018-11-14T12:19:22.046Z,12.83
2018-11-14T12:20:21.745Z,12.89
2018-11-14T12:21:21.729Z,12.87
2018-11-14T12:22:21.773Z,12.85
2018-11-14T12:23:21.902Z,12.78
2018-11-14T12:24:36.466Z,12.85
2018-11-14T12:25:21.841Z,12.7
2018-11-14T12:26:21.831Z,12.74
2018-11-14T12:27:22.222Z,12.82
2018-11-14T12:28:21.890Z,12.9
2018-11-14T12:29:36.567Z,12.96
2018-11-14T12:30:22.210Z,12.9
2018-11-14T12:31:22.369Z,13.01
2018-11-14T12:32:21.971Z,13.03
2018-11-14T12:33:21.968Z,12.89
2018-11-14T12:34:21.809Z,13.03
2018-11-14T12:35:22.431Z,13.04
2018-11-14T12:36:22.053Z,13.14
2018-11-14T12:37:22.050Z,12.97
2018-11-14T12:38:22.071Z,12.92
2018-11-14T12:39:21.862Z,12.92
2018-11-14T12:40:22.114Z,12.9
2018-11-14T12:41:36.808Z,12.67
2018-11-14T12:42:21.916Z,12.67
2018-11-14T12:43:22.204Z,12.75
2018-11-14T12:45:22.387Z,12.86
2018-11-14T12:46:22.242Z,12.9
2018-11-14T12:47:22.268Z,12.82
2018-11-14T12:48:22.273Z,12.71
2018-11-14T12:50:22.313Z,12.85
2018-11-14T12:51:22.366Z,12.89
2018-11-14T12:52:22.122Z,12.93
2018-11-14T12:53:22.389Z,12.95
2018-11-14T12:54:22.161Z,12.87
2018-11-14T12:55:22.417Z,12.75
2018-11-14T12:56:22.458Z,12.78
2018-11-14T12:57:22.467Z,12.82
2018-11-14T12:59:22.374Z,12.65
2018-11-14T13:00:22.259Z,12.6
2018-11-14T13:01:37.217Z,12.5
2018-11-14T13:02:22.555Z,12.49
2018-11-14T13:03:22.610Z,12.53
2018-11-14T13:04:22.595Z,12.62
2018-11-14T13:05:22.649Z,12.5
2018-11-14T13:06:22.662Z,12.67
2018-11-14T13:07:22.680Z,12.67
2018-11-14T13:08:22.679Z,12.74
2018-11-14T13:09:22.696Z,12.92
2018-11-14T13:11:22.486Z,12.9
2018-11-14T13:12:22.505Z,12.82
2018-11-14T13:13:22.815Z,12.79
2018-11-14T13:14:22.536Z,12.65
2018-11-14T13:15:22.585Z,12.53
2018-11-14T13:16:37.248Z,12.46
2018-11-14T13:17:37.524Z,12.49
2018-11-14T13:18:22.900Z,12.37
2018-11-14T13:19:22.893Z,12.32
2018-11-14T13:20:22.684Z,12.28
2018-11-14T13:21:22.936Z,12.21
2018-11-14T13:22:22.984Z,12.2
2018-11-14T13:24:23.004Z,12.35
2018-11-14T13:25:22.764Z,12.29
2018-11-14T13:26:23.036Z,12.37
2018-11-14T13:27:23.094Z,12.34
2018-11-14T13:28:23.082Z,12.39
2018-11-14T13:29:23.131Z,12.39
2018-11-14T13:30:23.126Z,12.34
2018-11-14T13:31:23.165Z,12.37
2018-11-14T13:34:23.382Z,12.27
2018-11-14T13:35:23.778Z,12.23
2018-11-14T13:36:23.000Z,12.24
2018-11-14T13:37:23.251Z,12.1
2018-11-14T13:38:23.038Z,12.1
2018-11-14T13:39:23.298Z,12.24
2018-11-14T13:40:23.332Z,12.17
2018-11-14T13:41:23.104Z,12.14
2018-11-14T13:42:23.446Z,12.2
2018-11-14T13:43:23.779Z,12.17
2018-11-14T13:44:23.137Z,12.17
2018-11-14T13:45:23.424Z,12.32
2018-11-14T13:46:23.460Z,12.27
2018-11-14T13:47:23.447Z,12.17
2018-11-14T13:48:23.503Z,12.07
2018-11-14T13:49:38.090Z,12.16
2018-11-14T13:50:24.234Z,11.96
2018-11-14T13:51:23.891Z,11.96
2018-11-14T13:52:23.578Z,12.01
2018-11-14T13:53:23.341Z,11.76
2018-11-14T13:54:38.249Z,11.75
2018-11-14T13:55:23.634Z,11.73
2018-11-14T13:56:23.629Z,11.79
2018-11-14T13:57:23.679Z,11.76
2018-11-14T13:58:23.714Z,11.75
2018-11-14T13:59:23.724Z,11.7
2018-11-14T14:00:23.723Z,11.75
2018-11-14T14:01:24.208Z,11.7
2018-11-14T14:02:23.749Z,11.7
2018-11-14T14:04:38.198Z,11.69